createdAt,value
2019-03-24T00:00:33.375Z,1003.34
2019-03-24T00:01:40.998Z,1003.35
2019-03-24T00:02:33.702Z,1003.34
2019-03-24T00:03:33.876Z,1003.27
2019-03-24T00:04:34.018Z,1003.27
2019-03-24T00:05:34.200Z,1003.30
2019-03-24T00:06:34.348Z,1003.24
2019-03-24T00:07:34.498Z,1003.24
2019-03-24T00:08:34.662Z,1003.25
2019-03-24T00:09:34.814Z,1003.25
2019-03-24T00:10:34.981Z,1003.25
2019-03-24T00:11:35.149Z,1003.25
2019-03-24T00:12:35.329Z,1003.26
2019-03-24T00:13:35.482Z,1003.28
2019-03-24T00:14:35.655Z,1003.25
2019-03-24T00:15:35.815Z,1003.24
2019-03-24T00:16:35.985Z,1003.24
2019-03-24T00:17:36.133Z,1003.21
2019-03-24T00:18:36.312Z,1003.22
2019-03-24T00:19:36.525Z,1003.22
2019-03-24T00:20:36.650Z,1003.26
2019-03-24T00:21:36.805Z,1003.25
2019-03-24T00:22:36.971Z,1003.24
2019-03-24T00:23:37.118Z,1003.24
2019-03-24T00:24:37.280Z,1003.20
2019-03-24T00:25:37.424Z,1003.17
2019-03-24T00:26:37.596Z,1003.14
2019-03-24T00:27:37.768Z,1003.11
2019-03-24T00:28:37.927Z,1003.12
2019-03-24T00:29:38.081Z,1003.07
2019-03-24T00:30:38.242Z,1003.06
2019-03-24T00:31:38.402Z,1003.06
2019-03-24T00:32:38.580Z,1003.07
2019-03-24T00:33:38.711Z,1003.07
2019-03-24T00:34:38.876Z,1003.05
2019-03-24T00:35:39.035Z,1003.01
2019-03-24T00:36:39.187Z,1003.05
2019-03-24T00:37:39.341Z,1003.08
2019-03-24T00:38:39.497Z,1003.07
2019-03-24T00:39:39.662Z,1003.07
2019-03-24T00:40:47.464Z,1003.08
2019-03-24T00:41:40.009Z,1003.09
2019-03-24T00:42:40.179Z,1003.08
2019-03-24T00:43:40.354Z,1003.03
2019-03-24T00:44:40.524Z,1003.02
2019-03-24T00:45:40.696Z,1003.00
2019-03-24T00:46:40.872Z,1002.99
2019-03-24T00:47:41.046Z,1002.94
2019-03-24T00:48:41.224Z,1002.95
2019-03-24T00:49:41.385Z,1002.93
2019-03-24T00:50:41.556Z,1002.97
2019-03-24T00:51:41.730Z,1002.96
2019-03-24T00:52:41.905Z,1002.92
2019-03-24T00:53:42.075Z,1002.91
2019-03-24T00:54:42.249Z,1002.93
2019-03-24T00:55:42.422Z,1002.91
2019-03-24T00:56:42.600Z,1002.85
2019-03-24T00:57:42.767Z,1002.82
2019-03-24T00:58:42.949Z,1002.83
2019-03-24T00:59:43.113Z,1002.81
2019-03-24T01:00:43.288Z,1002.77
2019-03-24T01:01:43.464Z,1002.70
2019-03-24T01:02:43.634Z,1002.70
2019-03-24T01:03:43.807Z,1002.74
2019-03-24T01:04:43.987Z,1002.77
2019-03-24T01:05:44.159Z,1002.70
2019-03-24T01:06:44.330Z,1002.73
2019-03-24T01:07:44.502Z,1002.71
2019-03-24T01:08:44.671Z,1002.72
2019-03-24T01:09:44.851Z,1002.74
2019-03-24T01:10:45.027Z,1002.69
2019-03-24T01:11:45.193Z,1002.70
2019-03-24T01:12:45.368Z,1002.76
2019-03-24T01:13:45.576Z,1002.72
2019-03-24T01:14:45.704Z,1002.73
2019-03-24T01:15:47.990Z,1002.79
2019-03-24T01:16:46.047Z,1002.77
2019-03-24T01:17:46.239Z,1002.79
2019-03-24T01:18:46.380Z,1002.78
2019-03-24T01:19:46.565Z,1002.75
2019-03-24T01:20:46.731Z,1002.73
2019-03-24T01:21:46.898Z,1002.72
2019-03-24T01:22:47.070Z,1002.71
2019-03-24T01:23:47.235Z,1002.75
2019-03-24T01:24:47.412Z,1002.74
2019-03-24T01:25:47.585Z,1002.69
2019-03-24T01:26:47.737Z,1002.69
2019-03-24T01:27:47.922Z,1002.71
2019-03-24T01:28:48.083Z,1002.73
2019-03-24T01:29:48.263Z,1002.71
2019-03-24T01:30:48.440Z,1002.72
2019-03-24T01:31:48.621Z,1002.70
2019-03-24T01:32:48.782Z,1002.70
2019-03-24T01:33:48.955Z,1002.71
2019-03-24T01:34:49.125Z,1002.68
2019-03-24T01:35:49.299Z,1002.74
2019-03-24T01:36:49.470Z,1002.78
2019-03-24T01:37:49.654Z,1002.72
2019-03-24T01:38:49.838Z,1002.67
2019-03-24T01:39:49.992Z,1002.66
2019-03-24T01:40:50.174Z,1002.66
2019-03-24T01:41:50.344Z,1002.75
2019-03-24T01:42:50.502Z,1002.72
2019-03-24T01:43:50.675Z,1002.72
2019-03-24T01:44:50.857Z,1002.70
2019-03-24T01:45:58.638Z,1002.76
2019-03-24T01:46:51.201Z,1002.75
2019-03-24T01:47:51.375Z,1002.74
2019-03-24T01:48:51.540Z,1002.72
2019-03-24T01:49:51.710Z,1002.76
2019-03-24T01:50:51.886Z,1002.70
2019-03-24T01:51:52.052Z,1002.69
2019-03-24T01:52:52.224Z,1002.71
2019-03-24T01:53:52.394Z,1002.73
2019-03-24T01:54:52.566Z,1002.66
2019-03-24T01:55:52.748Z,1002.65
2019-03-24T01:56:52.908Z,1002.65
2019-03-24T01:57:53.070Z,1002.68
2019-03-24T01:58:53.247Z,1002.68
2019-03-24T01:59:53.422Z,1002.67
2019-03-24T02:00:53.602Z,1002.71
2019-03-24T02:01:53.759Z,1002.66
2019-03-24T02:02:53.934Z,1002.67
2019-03-24T02:03:54.105Z,1002.69
2019-03-24T02:04:54.276Z,1002.68
2019-03-24T02:05:54.452Z,1002.66
2019-03-24T02:06:54.635Z,1002.69
2019-03-24T02:07:54.799Z,1002.64
2019-03-24T02:08:54.983Z,1002.64
2019-03-24T02:09:55.145Z,1002.66
2019-03-24T02:10:55.316Z,1002.63
2019-03-24T02:11:55.502Z,1002.63
2019-03-24T02:12:55.662Z,1002.63
2019-03-24T02:13:55.842Z,1002.57
2019-03-24T02:14:56.001Z,1002.61
2019-03-24T02:15:56.175Z,1002.54
2019-03-24T02:16:56.344Z,1002.58
2019-03-24T02:17:56.517Z,1002.53
2019-03-24T02:18:56.692Z,1002.52
2019-03-24T02:19:56.873Z,1002.55
2019-03-24T02:20:57.041Z,1002.55
2019-03-24T02:21:57.218Z,1002.52
2019-03-24T02:22:57.392Z,1002.53
2019-03-24T02:23:57.561Z,1002.52
2019-03-24T02:24:57.734Z,1002.53
2019-03-24T02:25:57.903Z,1002.54
2019-03-24T02:26:58.074Z,1002.57
2019-03-24T02:27:58.249Z,1002.56
2019-03-24T02:28:58.426Z,1002.45
2019-03-24T02:29:58.615Z,1002.51
2019-03-24T02:30:58.789Z,1002.48
2019-03-24T02:31:58.959Z,1002.47
2019-03-24T02:32:59.125Z,1002.45
2019-03-24T02:33:59.300Z,1002.42
2019-03-24T02:34:59.471Z,1002.40
2019-03-24T02:35:59.626Z,1002.38
2019-03-24T02:36:59.806Z,1002.39
2019-03-24T02:37:59.977Z,1002.48
2019-03-24T02:39:00.151Z,1002.45
2019-03-24T02:40:00.499Z,1002.43
2019-03-24T02:41:00.501Z,1002.41
2019-03-24T02:42:00.676Z,1002.42
2019-03-24T02:43:00.848Z,1002.43
2019-03-24T02:44:01.014Z,1002.44
2019-03-24T02:45:01.198Z,1002.42
2019-03-24T02:46:01.374Z,1002.35
2019-03-24T02:47:01.554Z,1002.39
2019-03-24T02:48:01.713Z,1002.36
2019-03-24T02:49:01.884Z,1002.39
2019-03-24T02:50:02.063Z,1002.36
2019-03-24T02:51:02.246Z,1002.33
2019-03-24T02:52:02.413Z,1002.33
2019-03-24T02:53:02.580Z,1002.30
2019-03-24T02:54:02.762Z,1002.31
2019-03-24T02:55:02.937Z,1002.31
2019-03-24T02:56:03.122Z,1002.31
2019-03-24T02:57:03.283Z,1002.29
2019-03-24T02:58:03.449Z,1002.28
2019-03-24T02:59:03.626Z,1002.28
2019-03-24T03:00:03.817Z,1002.31
2019-03-24T03:01:03.972Z,1002.34
2019-03-24T03:02:04.165Z,1002.26
2019-03-24T03:03:04.330Z,1002.29
2019-03-24T03:04:04.506Z,1002.29
2019-03-24T03:05:04.693Z,1002.29
2019-03-24T03:06:04.847Z,1002.30
2019-03-24T03:07:05.010Z,1002.30
2019-03-24T03:08:05.194Z,1002.30
2019-03-24T03:09:05.364Z,1002.27
2019-03-24T03:10:05.545Z,1002.26
2019-03-24T03:11:05.707Z,1002.25
2019-03-24T03:12:05.890Z,1002.24
2019-03-24T03:13:06.053Z,1002.25
2019-03-24T03:14:06.222Z,1002.28
2019-03-24T03:15:06.406Z,1002.29
2019-03-24T03:16:06.569Z,1002.27
2019-03-24T03:17:06.741Z,1002.28
2019-03-24T03:18:06.912Z,1002.27
2019-03-24T03:19:07.087Z,1002.24
2019-03-24T03:20:07.262Z,1002.22
2019-03-24T03:21:07.431Z,1002.28
2019-03-24T03:22:07.611Z,1002.29
2019-03-24T03:23:07.782Z,1002.27
2019-03-24T03:24:07.962Z,1002.19
2019-03-24T03:25:08.147Z,1002.21
2019-03-24T03:26:08.303Z,1002.19
2019-03-24T03:27:08.476Z,1002.17
2019-03-24T03:28:08.643Z,1002.17
2019-03-24T03:29:08.837Z,1002.17
2019-03-24T03:30:09.000Z,1002.14
2019-03-24T03:31:09.170Z,1002.19
2019-03-24T03:32:09.394Z,1002.10
2019-03-24T03:33:09.660Z,1002.13
2019-03-24T03:34:10.200Z,1002.08
2019-03-24T03:35:09.844Z,1002.06
2019-03-24T03:36:10.049Z,1002.08
2019-03-24T03:37:10.203Z,1002.10
2019-03-24T03:38:10.369Z,1002.12
2019-03-24T03:39:10.554Z,1002.13
2019-03-24T03:40:10.746Z,1002.12
2019-03-24T03:41:10.889Z,1002.15
2019-03-24T03:42:11.063Z,1002.13
2019-03-24T03:43:11.234Z,1002.13
2019-03-24T03:44:11.411Z,1002.10
2019-03-24T03:45:11.609Z,1002.09
2019-03-24T03:46:11.789Z,1002.05
2019-03-24T03:47:11.955Z,1002.08
2019-03-24T03:48:12.131Z,1002.05
2019-03-24T03:49:12.303Z,1002.04
2019-03-24T03:50:12.474Z,1002.06
2019-03-24T03:51:12.681Z,1002.05
2019-03-24T03:52:12.809Z,1002.00
2019-03-24T03:53:12.996Z,1002.01
2019-03-24T03:54:13.160Z,1002.02
2019-03-24T03:55:13.343Z,1002.03
2019-03-24T03:56:13.510Z,1002.04
2019-03-24T03:57:13.680Z,1002.02
2019-03-24T03:58:13.862Z,1002.00
2019-03-24T03:59:14.035Z,1002.00
2019-03-24T04:00:14.221Z,1002.00
2019-03-24T04:01:14.410Z,1001.99
2019-03-24T04:02:15.285Z,1001.99
2019-03-24T04:03:14.702Z,1002.01
2019-03-24T04:04:14.872Z,1001.97
2019-03-24T04:05:15.049Z,1001.97
2019-03-24T04:06:15.243Z,1002.00
2019-03-24T04:07:15.396Z,1002.04
2019-03-24T04:08:15.592Z,1002.01
2019-03-24T04:09:15.759Z,1002.07
2019-03-24T04:10:15.922Z,1002.08
2019-03-24T04:11:16.105Z,1002.07
2019-03-24T04:12:16.267Z,1002.06
2019-03-24T04:13:16.439Z,1002.07
2019-03-24T04:14:16.616Z,1002.05
2019-03-24T04:15:16.830Z,1002.07
2019-03-24T04:16:16.959Z,1002.03
2019-03-24T04:17:17.142Z,1002.01
2019-03-24T04:18:17.336Z,1002.01
2019-03-24T04:19:17.528Z,1001.98
2019-03-24T04:20:17.665Z,1002.00
2019-03-24T04:21:17.843Z,1002.01
2019-03-24T04:22:18.020Z,1001.97
2019-03-24T04:23:18.201Z,1001.98
2019-03-24T04:24:18.373Z,1001.98
2019-03-24T04:25:18.565Z,1001.94
2019-03-24T04:26:18.716Z,1001.89
2019-03-24T04:27:18.886Z,1001.89
2019-03-24T04:28:19.071Z,1001.87
2019-03-24T04:29:19.259Z,1001.86
2019-03-24T04:30:19.428Z,1001.86
2019-03-24T04:31:19.593Z,1001.80
2019-03-24T04:32:19.770Z,1001.82
2019-03-24T04:33:19.947Z,1001.80
2019-03-24T04:34:20.140Z,1001.85
2019-03-24T04:35:20.316Z,1001.88
2019-03-24T04:36:20.475Z,1001.89
2019-03-24T04:37:20.647Z,1001.87
2019-03-24T04:38:20.819Z,1001.88
2019-03-24T04:39:21.023Z,1001.87
2019-03-24T04:40:21.173Z,1001.90
2019-03-24T04:41:21.604Z,1001.87
2019-03-24T04:42:21.603Z,1001.85
2019-03-24T04:43:21.819Z,1001.91
2019-03-24T04:44:21.900Z,1001.92
2019-03-24T04:45:22.061Z,1001.93
2019-03-24T04:46:22.237Z,1001.84
2019-03-24T04:47:22.405Z,1001.89
2019-03-24T04:48:22.574Z,1001.85
2019-03-24T04:49:22.751Z,1001.86
2019-03-24T04:50:22.922Z,1001.86
2019-03-24T04:51:23.102Z,1001.84
2019-03-24T04:52:23.276Z,1001.85
2019-03-24T04:53:23.511Z,1001.83
2019-03-24T04:54:23.623Z,1001.85
2019-03-24T04:55:23.788Z,1001.79
2019-03-24T04:56:23.982Z,1001.88
2019-03-24T04:57:24.148Z,1001.88
2019-03-24T04:58:24.320Z,1001.88
2019-03-24T04:59:24.495Z,1001.88
2019-03-24T05:00:24.675Z,1001.82
2019-03-24T05:01:24.845Z,1001.85
2019-03-24T05:02:25.022Z,1001.84
2019-03-24T05:03:25.189Z,1001.81
2019-03-24T05:04:25.361Z,1001.80
2019-03-24T05:05:25.536Z,1001.82
2019-03-24T05:06:25.715Z,1001.81
2019-03-24T05:07:25.898Z,1001.81
2019-03-24T05:08:26.075Z,1001.84
2019-03-24T05:09:26.243Z,1001.84
2019-03-24T05:10:26.400Z,1001.82
2019-03-24T05:11:26.583Z,1001.82
2019-03-24T05:12:26.768Z,1001.81
2019-03-24T05:13:26.920Z,1001.85
2019-03-24T05:14:27.079Z,1001.82
2019-03-24T05:15:27.251Z,1001.80
2019-03-24T05:16:27.416Z,1001.82
2019-03-24T05:17:27.616Z,1001.83
2019-03-24T05:18:27.752Z,1001.82
2019-03-24T05:19:27.935Z,1001.83
2019-03-24T05:20:28.093Z,1001.84
2019-03-24T05:21:28.259Z,1001.82
2019-03-24T05:22:28.434Z,1001.81
2019-03-24T05:23:28.656Z,1001.82
2019-03-24T05:24:28.797Z,1001.83
2019-03-24T05:25:28.959Z,1001.78
2019-03-24T05:26:29.132Z,1001.80
2019-03-24T05:27:29.305Z,1001.79
2019-03-24T05:28:29.481Z,1001.79
2019-03-24T05:29:29.657Z,1001.77
2019-03-24T05:30:29.841Z,1001.83
2019-03-24T05:31:30.019Z,1001.74
2019-03-24T05:32:30.184Z,1001.72
2019-03-24T05:33:30.358Z,1001.72
2019-03-24T05:34:30.534Z,1001.71
2019-03-24T05:35:30.711Z,1001.72
2019-03-24T05:36:30.886Z,1001.72
2019-03-24T05:37:31.059Z,1001.70
2019-03-24T05:38:31.246Z,1001.68
2019-03-24T05:39:31.419Z,1001.71
2019-03-24T05:40:31.594Z,1001.69
2019-03-24T05:41:31.769Z,1001.69
2019-03-24T05:42:31.946Z,1001.67
2019-03-24T05:43:32.134Z,1001.65
2019-03-24T05:44:32.298Z,1001.65
2019-03-24T05:45:32.471Z,1001.62
2019-03-24T05:46:32.649Z,1001.60
2019-03-24T05:47:37.074Z,1001.59
2019-03-24T05:48:33.002Z,1001.59
2019-03-24T05:49:33.176Z,1001.61
2019-03-24T05:50:33.352Z,1001.62
2019-03-24T05:51:33.523Z,1001.61
2019-03-24T05:52:33.696Z,1001.63
2019-03-24T05:53:33.869Z,1001.63
2019-03-24T05:54:34.052Z,1001.60
2019-03-24T05:55:34.217Z,1001.57
2019-03-24T05:56:34.391Z,1001.60
2019-03-24T05:57:34.563Z,1001.57
2019-03-24T05:58:34.739Z,1001.63
2019-03-24T05:59:34.925Z,1001.61
2019-03-24T06:00:35.095Z,1001.59
2019-03-24T06:01:35.271Z,1001.60
2019-03-24T06:02:35.444Z,1001.59
2019-03-24T06:03:35.616Z,1001.59
2019-03-24T06:04:35.801Z,1001.60
2019-03-24T06:05:35.968Z,1001.62
2019-03-24T06:06:36.148Z,1001.60
2019-03-24T06:07:36.312Z,1001.60
2019-03-24T06:08:36.490Z,1001.62
2019-03-24T06:09:36.664Z,1001.62
2019-03-24T06:10:36.836Z,1001.65
2019-03-24T06:11:37.011Z,1001.59
2019-03-24T06:12:37.181Z,1001.59
2019-03-24T06:13:37.357Z,1001.65
2019-03-24T06:14:37.532Z,1001.61
2019-03-24T06:15:37.712Z,1001.59
2019-03-24T06:16:38.063Z,1001.61
2019-03-24T06:17:47.389Z,1001.65
2019-03-24T06:18:38.243Z,1001.62
2019-03-24T06:19:38.422Z,1001.58
2019-03-24T06:20:38.599Z,1001.61
2019-03-24T06:21:38.772Z,1001.60
2019-03-24T06:22:38.945Z,1001.61
2019-03-24T06:23:39.129Z,1001.63
2019-03-24T06:24:39.306Z,1001.62
2019-03-24T06:25:40.236Z,1001.61
2019-03-24T06:26:39.629Z,1001.65
2019-03-24T06:27:39.799Z,1001.59
2019-03-24T06:28:39.975Z,1001.61
2019-03-24T06:29:40.151Z,1001.60
2019-03-24T06:30:40.320Z,1001.61
2019-03-24T06:31:40.494Z,1001.60
2019-03-24T06:32:40.670Z,1001.61
2019-03-24T06:33:40.840Z,1001.57
2019-03-24T06:34:41.014Z,1001.60
2019-03-24T06:35:41.188Z,1001.59
2019-03-24T06:36:41.367Z,1001.55
2019-03-24T06:37:41.543Z,1001.57
2019-03-24T06:38:41.721Z,1001.61
2019-03-24T06:39:41.900Z,1001.55
2019-03-24T06:40:42.081Z,1001.55
2019-03-24T06:41:42.258Z,1001.57
2019-03-24T06:42:42.443Z,1001.58
2019-03-24T06:43:42.617Z,1001.57
2019-03-24T06:44:42.828Z,1001.56
2019-03-24T06:45:42.944Z,1001.60
2019-03-24T06:46:43.117Z,1001.58
2019-03-24T06:47:43.288Z,1001.60
2019-03-24T06:48:43.457Z,1001.57
2019-03-24T06:49:43.644Z,1001.56
2019-03-24T06:50:43.814Z,1001.54
2019-03-24T06:51:43.993Z,1001.61
2019-03-24T06:52:44.167Z,1001.57
2019-03-24T06:53:44.343Z,1001.60
2019-03-24T06:54:44.514Z,1001.60
2019-03-24T06:55:44.683Z,1001.63
2019-03-24T06:56:44.862Z,1001.66
2019-03-24T06:57:45.035Z,1001.66
2019-03-24T06:58:45.215Z,1001.62
2019-03-24T06:59:45.398Z,1001.65
2019-03-24T07:00:45.566Z,1001.70
2019-03-24T07:01:45.744Z,1001.61
2019-03-24T07:02:45.912Z,1001.64
2019-03-24T07:03:46.081Z,1001.61
2019-03-24T07:04:46.267Z,1001.59
2019-03-24T07:05:46.431Z,1001.59
2019-03-24T07:06:46.605Z,1001.56
2019-03-24T07:07:46.780Z,1001.58
2019-03-24T07:08:46.948Z,1001.57
2019-03-24T07:09:47.124Z,1001.55
2019-03-24T07:10:47.299Z,1001.55
2019-03-24T07:11:47.452Z,1001.59
2019-03-24T07:12:47.637Z,1001.54
2019-03-24T07:13:47.835Z,1001.52
2019-03-24T07:14:48.016Z,1001.51
2019-03-24T07:15:48.155Z,1001.47
2019-03-24T07:16:48.330Z,1001.51
2019-03-24T07:17:48.508Z,1001.50
2019-03-24T07:18:48.680Z,1001.51
2019-03-24T07:19:48.855Z,1001.47
2019-03-24T07:20:49.040Z,1001.49
2019-03-24T07:21:49.205Z,1001.52
2019-03-24T07:22:49.383Z,1001.50
2019-03-24T07:23:49.559Z,1001.48
2019-03-24T07:24:49.727Z,1001.47
2019-03-24T07:25:49.902Z,1001.52
2019-03-24T07:26:50.079Z,1001.50
2019-03-24T07:27:50.252Z,1001.52
2019-03-24T07:28:50.430Z,1001.52
2019-03-24T07:29:50.614Z,1001.52
2019-03-24T07:30:50.788Z,1001.54
2019-03-24T07:31:50.979Z,1001.53
2019-03-24T07:32:51.130Z,1001.52
2019-03-24T07:33:51.304Z,1001.51
2019-03-24T07:34:51.481Z,1001.58
2019-03-24T07:35:51.659Z,1001.57
2019-03-24T07:36:51.821Z,1001.56
2019-03-24T07:37:52.006Z,1001.53
2019-03-24T07:38:59.819Z,1001.52
2019-03-24T07:39:52.364Z,1001.53
2019-03-24T07:40:52.534Z,1001.51
2019-03-24T07:41:52.706Z,1001.57
2019-03-24T07:42:52.887Z,1001.52
2019-03-24T07:43:53.055Z,1001.57
2019-03-24T07:44:53.233Z,1001.57
2019-03-24T07:45:53.403Z,1001.54
2019-03-24T07:46:53.578Z,1001.57
2019-03-24T07:47:53.752Z,1001.59
2019-03-24T07:48:53.917Z,1001.55
2019-03-24T07:49:54.094Z,1001.54
2019-03-24T07:50:54.270Z,1001.56
2019-03-24T07:51:54.433Z,1001.52
2019-03-24T07:52:54.629Z,1001.49
2019-03-24T07:53:54.789Z,1001.49
2019-03-24T07:54:54.972Z,1001.48
2019-03-24T07:55:55.149Z,1001.46
2019-03-24T07:56:55.314Z,1001.48
2019-03-24T07:57:55.493Z,1001.44
2019-03-24T07:58:55.662Z,1001.44
2019-03-24T07:59:55.838Z,1001.40
2019-03-24T08:00:56.013Z,1001.45
2019-03-24T08:01:56.194Z,1001.41
2019-03-24T08:03:03.997Z,1001.43
2019-03-24T08:03:56.528Z,1001.42
2019-03-24T08:04:56.714Z,1001.44
2019-03-24T08:05:56.880Z,1001.39
2019-03-24T08:06:57.050Z,1001.38
2019-03-24T08:07:57.230Z,1001.40
2019-03-24T08:08:57.416Z,1001.40
2019-03-24T08:09:57.561Z,1001.38
2019-03-24T08:10:57.737Z,1001.32
2019-03-24T08:11:57.920Z,1001.35
2019-03-24T08:12:58.179Z,1001.33
2019-03-24T08:13:58.257Z,1001.33
2019-03-24T08:14:59.999Z,1001.30
2019-03-24T08:15:58.601Z,1001.32
2019-03-24T08:16:58.794Z,1001.34
2019-03-24T08:17:58.973Z,1001.30
2019-03-24T08:18:59.129Z,1001.30
2019-03-24T08:19:59.295Z,1001.26
2019-03-24T08:20:59.464Z,1001.26
2019-03-24T08:21:59.647Z,1001.30
2019-03-24T08:22:59.808Z,1001.25
2019-03-24T08:23:59.989Z,1001.26
2019-03-24T08:25:00.461Z,1001.21
2019-03-24T08:26:00.332Z,1001.24
2019-03-24T08:27:00.508Z,1001.25
2019-03-24T08:28:00.688Z,1001.21
2019-03-24T08:29:00.854Z,1001.21
2019-03-24T08:30:01.035Z,1001.20
2019-03-24T08:31:01.200Z,1001.27
2019-03-24T08:32:01.378Z,1001.21
2019-03-24T08:33:01.551Z,1001.23
2019-03-24T08:34:01.728Z,1001.22
2019-03-24T08:35:01.919Z,1001.18
2019-03-24T08:36:02.081Z,1001.21
2019-03-24T08:37:02.254Z,1001.23
2019-03-24T08:38:02.415Z,1001.21
2019-03-24T08:39:02.594Z,1001.26
2019-03-24T08:40:02.759Z,1001.19
2019-03-24T08:41:02.986Z,1001.23
2019-03-24T08:42:03.112Z,1001.23
2019-03-24T08:43:03.300Z,1001.17
2019-03-24T08:44:03.461Z,1001.16
2019-03-24T08:45:03.651Z,1001.17
2019-03-24T08:46:03.817Z,1001.17
2019-03-24T08:47:03.990Z,1001.20
2019-03-24T08:48:04.170Z,1001.19
2019-03-24T08:49:04.349Z,1001.20
2019-03-24T08:50:04.521Z,1001.14
2019-03-24T08:51:04.695Z,1001.17
2019-03-24T08:52:04.871Z,1001.16
2019-03-24T08:53:05.038Z,1001.17
2019-03-24T08:54:05.221Z,1001.20
2019-03-24T08:55:05.400Z,1001.14
2019-03-24T08:56:05.561Z,1001.11
2019-03-24T08:57:05.739Z,1001.11
2019-03-24T08:58:05.920Z,1001.13
2019-03-24T08:59:06.089Z,1001.13
2019-03-24T09:00:06.271Z,1001.09
2019-03-24T09:01:06.432Z,1001.11
2019-03-24T09:02:06.609Z,1001.09
2019-03-24T09:03:06.777Z,1001.09
2019-03-24T09:04:06.980Z,1001.05
2019-03-24T09:05:07.103Z,1001.06
2019-03-24T09:06:07.329Z,1001.02
2019-03-24T09:07:07.464Z,1001.03
2019-03-24T09:08:07.633Z,1001.03
2019-03-24T09:09:07.797Z,1001.00
2019-03-24T09:10:07.963Z,1001.03
2019-03-24T09:11:08.105Z,1000.99
2019-03-24T09:12:08.265Z,1000.98
2019-03-24T09:13:08.418Z,1000.96
2019-03-24T09:14:08.605Z,1000.99
2019-03-24T09:15:08.756Z,1000.94
2019-03-24T09:16:08.950Z,1000.99
2019-03-24T09:17:09.084Z,1001.00
2019-03-24T09:18:09.268Z,1000.97
2019-03-24T09:19:09.450Z,1000.94
2019-03-24T09:20:09.589Z,1000.91
2019-03-24T09:21:09.763Z,1000.91
2019-03-24T09:22:09.923Z,1000.88
2019-03-24T09:23:10.694Z,1000.87
2019-03-24T09:24:10.274Z,1000.90
2019-03-24T09:25:10.465Z,1000.85
2019-03-24T09:26:10.603Z,1000.85
2019-03-24T09:27:10.766Z,1000.87
2019-03-24T09:28:10.940Z,1000.85
2019-03-24T09:29:11.110Z,1000.87
2019-03-24T09:30:11.272Z,1000.85
2019-03-24T09:31:11.429Z,1000.86
2019-03-24T09:32:11.593Z,1000.84
2019-03-24T09:33:11.756Z,1000.76
2019-03-24T09:34:11.922Z,1000.79
2019-03-24T09:35:12.113Z,1000.81
2019-03-24T09:36:12.766Z,1000.79
2019-03-24T09:37:12.394Z,1000.78
2019-03-24T09:38:12.578Z,1000.83
2019-03-24T09:39:12.745Z,1000.85
2019-03-24T09:40:12.894Z,1000.80
2019-03-24T09:41:13.085Z,1000.85
2019-03-24T09:42:13.270Z,1000.83
2019-03-24T09:43:13.404Z,1000.79
2019-03-24T09:44:13.604Z,1000.75
2019-03-24T09:45:13.761Z,1000.75
2019-03-24T09:46:13.966Z,1000.68
2019-03-24T09:47:14.087Z,1000.72
2019-03-24T09:48:14.259Z,1000.66
2019-03-24T09:49:14.459Z,1000.66
2019-03-24T09:50:14.649Z,1000.62
2019-03-24T09:51:14.849Z,1000.65
2019-03-24T09:52:15.010Z,1000.64
2019-03-24T09:53:15.145Z,1000.68
2019-03-24T09:54:15.334Z,1000.72
2019-03-24T09:55:15.507Z,1000.67
2019-03-24T09:56:15.655Z,1000.66
2019-03-24T09:57:15.813Z,1000.66
2019-03-24T09:58:15.990Z,1000.63
2019-03-24T09:59:16.155Z,1000.62
2019-03-24T10:00:16.325Z,1000.60
2019-03-24T10:01:16.491Z,1000.58
2019-03-24T10:02:16.647Z,1000.59
2019-03-24T10:03:16.817Z,1000.60
2019-03-24T10:04:16.990Z,1000.60
2019-03-24T10:05:17.157Z,1000.57
2019-03-24T10:06:17.299Z,1000.56
2019-03-24T10:07:17.471Z,1000.56
2019-03-24T10:08:17.639Z,1000.51
2019-03-24T10:09:17.780Z,1000.46
2019-03-24T10:10:17.975Z,1000.43
2019-03-24T10:11:18.138Z,1000.41
2019-03-24T10:12:18.317Z,1000.38
2019-03-24T10:13:18.476Z,1000.37
2019-03-24T10:14:18.640Z,1000.35
2019-03-24T10:15:18.801Z,1000.39
2019-03-24T10:16:18.967Z,1000.33
2019-03-24T10:17:19.144Z,1000.31
2019-03-24T10:18:19.306Z,1000.27
2019-03-24T10:19:19.490Z,1000.28
2019-03-24T10:20:19.637Z,1000.26
2019-03-24T10:21:19.808Z,1000.22
2019-03-24T10:22:20.056Z,1000.21
2019-03-24T10:23:20.160Z,1000.22
2019-03-24T10:24:20.368Z,1000.17
2019-03-24T10:25:20.529Z,1000.18
2019-03-24T10:26:20.681Z,1000.17
2019-03-24T10:27:20.883Z,1000.16
2019-03-24T10:28:21.059Z,1000.14
2019-03-24T10:29:21.219Z,1000.17
2019-03-24T10:30:21.381Z,1000.12
2019-03-24T10:31:21.559Z,1000.12
2019-03-24T10:32:21.740Z,1000.09
2019-03-24T10:33:21.910Z,1000.14
2019-03-24T10:34:22.075Z,1000.10
2019-03-24T10:35:22.271Z,1000.14
2019-03-24T10:36:22.406Z,1000.11
2019-03-24T10:37:22.591Z,1000.09
2019-03-24T10:38:22.749Z,1000.07
2019-03-24T10:39:22.934Z,1000.08
2019-03-24T10:40:28.635Z,1000.11
2019-03-24T10:41:23.254Z,1000.08
2019-03-24T10:42:23.431Z,1000.11
2019-03-24T10:43:23.589Z,1000.13
2019-03-24T10:44:23.765Z,1000.13
2019-03-24T10:45:23.924Z,1000.14
2019-03-24T10:46:24.106Z,1000.12
2019-03-24T10:47:24.299Z,1000.10
2019-03-24T10:48:33.287Z,1000.10
2019-03-24T10:49:25.384Z,1000.04
2019-03-24T10:50:24.799Z,999.99
2019-03-24T10:51:24.936Z,1000.02
2019-03-24T10:52:25.105Z,999.98
2019-03-24T10:53:25.297Z,1000.00
2019-03-24T10:54:25.503Z,1000.02
2019-03-24T10:55:25.697Z,1000.02
2019-03-24T10:56:25.920Z,1000.05
2019-03-24T10:57:26.869Z,999.98
2019-03-24T10:58:26.204Z,1000.05
2019-03-24T10:59:26.323Z,1000.04
2019-03-24T11:00:26.487Z,1000.07
2019-03-24T11:01:26.655Z,1000.06
2019-03-24T11:02:26.851Z,1000.05
2019-03-24T11:03:26.995Z,1000.03
2019-03-24T11:04:27.170Z,1000.03
2019-03-24T11:05:27.338Z,999.99
2019-03-24T11:06:27.516Z,999.99
2019-03-24T11:07:27.697Z,999.99
2019-03-24T11:08:27.871Z,999.96
2019-03-24T11:09:28.042Z,999.98
2019-03-24T11:10:28.242Z,999.99
2019-03-24T11:11:37.007Z,999.96
2019-03-24T11:12:28.650Z,999.94
2019-03-24T11:13:28.707Z,999.94
2019-03-24T11:14:29.464Z,999.93
2019-03-24T11:15:29.119Z,999.91
2019-03-24T11:16:29.286Z,999.90
2019-03-24T11:17:29.487Z,999.89
2019-03-24T11:18:29.657Z,999.86
2019-03-24T11:19:35.790Z,999.87
2019-03-24T11:20:30.025Z,999.85
2019-03-24T11:21:30.192Z,999.79
2019-03-24T11:22:30.457Z,999.79
2019-03-24T11:23:30.544Z,999.84
2019-03-24T11:24:30.724Z,999.78
2019-03-24T11:25:30.903Z,999.76
2019-03-24T11:26:31.075Z,999.76
2019-03-24T11:27:31.267Z,999.80
2019-03-24T11:28:31.416Z,999.79
2019-03-24T11:29:31.596Z,999.78
2019-03-24T11:30:31.781Z,999.75
2019-03-24T11:31:32.011Z,999.77
2019-03-24T11:32:32.158Z,999.82
2019-03-24T11:33:32.345Z,999.75
2019-03-24T11:34:32.481Z,999.73
2019-03-24T11:35:32.643Z,999.72
2019-03-24T11:36:32.802Z,999.70
2019-03-24T11:37:33.030Z,999.72
2019-03-24T11:38:33.171Z,999.72
2019-03-24T11:39:33.349Z,999.71
2019-03-24T11:40:33.520Z,999.73
2019-03-24T11:41:33.737Z,999.67
2019-03-24T11:42:33.901Z,999.66
2019-03-24T11:43:34.083Z,999.65
2019-03-24T11:44:34.886Z,999.62
2019-03-24T11:45:34.418Z,999.67
2019-03-24T11:46:34.615Z,999.67
2019-03-24T11:47:34.781Z,999.67
2019-03-24T11:48:34.939Z,999.68
2019-03-24T11:49:45.392Z,999.62
2019-03-24T11:50:35.281Z,999.63
2019-03-24T11:51:35.484Z,999.66
2019-03-24T11:52:35.632Z,999.66
2019-03-24T11:53:35.795Z,999.65
2019-03-24T11:54:35.986Z,999.65
2019-03-24T11:55:36.171Z,999.64
2019-03-24T11:56:36.362Z,999.63
2019-03-24T11:57:36.528Z,999.62
2019-03-24T11:58:36.736Z,999.60
2019-03-24T11:59:36.828Z,999.63
2019-03-24T12:00:37.049Z,999.57
2019-03-24T12:01:38.427Z,999.56
2019-03-24T12:02:37.385Z,999.56
2019-03-24T12:03:37.572Z,999.56
2019-03-24T12:04:37.722Z,999.52
2019-03-24T12:05:37.910Z,999.54
2019-03-24T12:06:38.058Z,999.50
2019-03-24T12:07:38.258Z,999.49
2019-03-24T12:08:38.888Z,999.47
2019-03-24T12:09:38.580Z,999.47